CheckWX is a tool to help pilots better visualize weather data.  It is not intended as a substitute for an official pre-flight weather briefing.

16:36:54 UTC

KBNA TAF
Nashville International Airport
Nashville, Tennessee, USA
KBNA 261120Z 2612/2712 01012KT P6SM SKC

Mar-26@
12:00 UTC

Mar-26 @ 12:00 UTC

Mar-27@
12:00 UTC

Mar-27 @ 12:00 UTC

KBNA 261120Z 2612/2712 01012KT P6SM SKC
Wind
  • 010° at 12 KTS
Cloud Levels
  • Clear skies